sensor_id;sensor_type;location;lat;lon;timestamp;temperature;humidity
46816;DHT22;32787;53.316;8.670;2023-07-28T00:01:27;17.50;96.10
46816;DHT22;32787;53.316;8.670;2023-07-28T00:03:52;17.30;96.10
46816;DHT22;32787;53.316;8.670;2023-07-28T00:06:18;17.40;96.20
46816;DHT22;32787;53.316;8.670;2023-07-28T00:08:44;17.50;96.30
46816;DHT22;32787;53.316;8.670;2023-07-28T00:11:13;17.50;96.10
46816;DHT22;32787;53.316;8.670;2023-07-28T00:13:40;17.40;96.00
46816;DHT22;32787;53.316;8.670;2023-07-28T00:16:06;17.40;96.00
46816;DHT22;32787;53.316;8.670;2023-07-28T00:18:31;17.40;95.90
46816;DHT22;32787;53.316;8.670;2023-07-28T00:20:57;17.40;96.00
46816;DHT22;32787;53.316;8.670;2023-07-28T00:23:23;17.40;95.90
46816;DHT22;32787;53.316;8.670;2023-07-28T00:25:48;17.30;95.90
46816;DHT22;32787;53.316;8.670;2023-07-28T00:28:14;17.30;96.00
46816;DHT22;32787;53.316;8.670;2023-07-28T00:30:40;17.30;96.00
46816;DHT22;32787;53.316;8.670;2023-07-28T00:33:05;17.30;96.00
46816;DHT22;32787;53.316;8.670;2023-07-28T00:35:31;17.40;96.00
46816;DHT22;32787;53.316;8.670;2023-07-28T00:37:57;17.30;96.00
46816;DHT22;32787;53.316;8.670;2023-07-28T00:40:23;17.30;96.10
46816;DHT22;32787;53.316;8.670;2023-07-28T00:42:48;17.30;96.00
46816;DHT22;32787;53.316;8.670;2023-07-28T00:45:14;17.30;96.10
46816;DHT22;32787;53.316;8.670;2023-07-28T00:47:40;17.30;96.10
46816;DHT22;32787;53.316;8.670;2023-07-28T00:50:08;17.40;96.10
46816;DHT22;32787;53.316;8.670;2023-07-28T00:52:35;17.40;96.00
46816;DHT22;32787;53.316;8.670;2023-07-28T00:55:01;17.40;96.00
46816;DHT22;32787;53.316;8.670;2023-07-28T00:57:27;17.50;96.00
46816;DHT22;32787;53.316;8.670;2023-07-28T00:59:53;17.50;95.80
46816;DHT22;32787;53.316;8.670;2023-07-28T01:02:22;17.50;95.80
46816;DHT22;32787;53.316;8.670;2023-07-28T01:04:48;17.50;95.80
46816;DHT22;32787;53.316;8.670;2023-07-28T01:07:22;17.40;95.70
46816;DHT22;32787;53.316;8.670;2023-07-28T01:10:30;17.40;95.70
46816;DHT22;32787;53.316;8.670;2023-07-28T01:12:56;17.50;95.70
46816;DHT22;32787;53.316;8.670;2023-07-28T01:15:22;17.40;95.70
46816;DHT22;32787;53.316;8.670;2023-07-28T01:17:48;17.50;95.60
46816;DHT22;32787;53.316;8.670;2023-07-28T01:20:13;17.40;95.60
46816;DHT22;32787;53.316;8.670;2023-07-28T01:28:25;17.40;95.50
46816;DHT22;32787;53.316;8.670;2023-07-28T01:30:51;17.40;95.50
46816;DHT22;32787;53.316;8.670;2023-07-28T01:33:17;17.40;95.60
46816;DHT22;32787;53.316;8.670;2023-07-28T01:35:42;17.40;95.60
46816;DHT22;32787;53.316;8.670;2023-07-28T01:38:08;17.40;95.60
46816;DHT22;32787;53.316;8.670;2023-07-28T01:40:33;17.40;95.70
46816;DHT22;32787;53.316;8.670;2023-07-28T01:42:59;17.50;95.70
46816;DHT22;32787;53.316;8.670;2023-07-28T01:45:25;17.50;95.60
46816;DHT22;32787;53.316;8.670;2023-07-28T01:47:50;17.50;95.50
46816;DHT22;32787;53.316;8.670;2023-07-28T01:50:16;17.60;95.50
46816;DHT22;32787;53.316;8.670;2023-07-28T01:52:41;17.50;95.20
46816;DHT22;32787;53.316;8.670;2023-07-28T01:55:07;17.50;95.30
46816;DHT22;32787;53.316;8.670;2023-07-28T01:57:34;17.60;95.20
46816;DHT22;32787;53.316;8.670;2023-07-28T02:00:00;17.70;95.10
46816;DHT22;32787;53.316;8.670;2023-07-28T02:02:25;17.50;94.90
46816;DHT22;32787;53.316;8.670;2023-07-28T02:04:51;17.50;94.90
46816;DHT22;32787;53.316;8.670;2023-07-28T02:07:16;17.50;95.00
46816;DHT22;32787;53.316;8.670;2023-07-28T02:09:42;17.60;95.10
46816;DHT22;32787;53.316;8.670;2023-07-28T02:12:08;17.70;94.90
46816;DHT22;32787;53.316;8.670;2023-07-28T02:14:33;17.60;94.60
46816;DHT22;32787;53.316;8.670;2023-07-28T02:16:59;17.60;94.70
46816;DHT22;32787;53.316;8.670;2023-07-28T02:19:25;17.60;94.70
46816;DHT22;32787;53.316;8.670;2023-07-28T02:21:51;17.50;94.80
46816;DHT22;32787;53.316;8.670;2023-07-28T02:24:16;17.50;94.80
46816;DHT22;32787;53.316;8.670;2023-07-28T02:26:42;17.50;94.80
46816;DHT22;32787;53.316;8.670;2023-07-28T02:29:07;17.50;94.90
46816;DHT22;32787;53.316;8.670;2023-07-28T02:31:33;17.40;94.80
46816;DHT22;32787;53.316;8.670;2023-07-28T02:33:59;17.40;94.80
46816;DHT22;32787;53.316;8.670;2023-07-28T02:36:24;17.50;95.00
46816;DHT22;32787;53.316;8.670;2023-07-28T02:38:50;17.40;94.90
46816;DHT22;32787;53.316;8.670;2023-07-28T02:41:15;17.30;94.90
46816;DHT22;32787;53.316;8.670;2023-07-28T02:43:41;17.40;95.10
46816;DHT22;32787;53.316;8.670;2023-07-28T02:46:06;17.30;95.00
46816;DHT22;32787;53.316;8.670;2023-07-28T02:48:32;17.30;95.10
46816;DHT22;32787;53.316;8.670;2023-07-28T02:50:58;17.30;95.20
46816;DHT22;32787;53.316;8.670;2023-07-28T02:53:23;17.30;95.30
46816;DHT22;32787;53.316;8.670;2023-07-28T02:55:49;17.30;95.40
46816;DHT22;32787;53.316;8.670;2023-07-28T02:58:15;17.30;95.30
46816;DHT22;32787;53.316;8.670;2023-07-28T03:00:41;17.30;95.40
46816;DHT22;32787;53.316;8.670;2023-07-28T03:03:08;17.30;95.40
46816;DHT22;32787;53.316;8.670;2023-07-28T03:05:38;17.30;95.40
46816;DHT22;32787;53.316;8.670;2023-07-28T03:08:04;17.20;95.50
46816;DHT22;32787;53.316;8.670;2023-07-28T03:10:30;17.20;95.50
46816;DHT22;32787;53.316;8.670;2023-07-28T03:12:56;17.30;95.50
46816;DHT22;32787;53.316;8.670;2023-07-28T03:15:22;17.30;95.50
46816;DHT22;32787;53.316;8.670;2023-07-28T03:17:49;17.30;95.60
46816;DHT22;32787;53.316;8.670;2023-07-28T03:20:15;17.30;95.50
46816;DHT22;32787;53.316;8.670;2023-07-28T03:22:41;17.30;95.50
46816;DHT22;32787;53.316;8.670;2023-07-28T03:25:06;17.30;95.60
46816;DHT22;32787;53.316;8.670;2023-07-28T03:27:32;17.30;95.50
46816;DHT22;32787;53.316;8.670;2023-07-28T03:29:58;17.30;95.40
46816;DHT22;32787;53.316;8.670;2023-07-28T03:32:23;17.20;95.50
46816;DHT22;32787;53.316;8.670;2023-07-28T03:34:49;17.30;95.50
46816;DHT22;32787;53.316;8.670;2023-07-28T03:37:15;17.30;95.60
46816;DHT22;32787;53.316;8.670;2023-07-28T03:39:40;17.30;95.50
46816;DHT22;32787;53.316;8.670;2023-07-28T03:42:06;17.30;95.50
46816;DHT22;32787;53.316;8.670;2023-07-28T03:44:32;17.30;95.50
46816;DHT22;32787;53.316;8.670;2023-07-28T03:46:59;17.20;95.80
46816;DHT22;32787;53.316;8.670;2023-07-28T03:49:24;17.10;95.90
46816;DHT22;32787;53.316;8.670;2023-07-28T03:51:50;17.20;96.00
46816;DHT22;32787;53.316;8.670;2023-07-28T03:54:16;17.10;96.00
46816;DHT22;32787;53.316;8.670;2023-07-28T03:56:41;17.10;96.00
46816;DHT22;32787;53.316;8.670;2023-07-28T03:59:07;17.20;96.20
46816;DHT22;32787;53.316;8.670;2023-07-28T04:01:32;17.30;96.10
46816;DHT22;32787;53.316;8.670;2023-07-28T04:03:58;17.30;96.10
46816;DHT22;32787;53.316;8.670;2023-07-28T04:06:46;17.20;96.10
46816;DHT22;32787;53.316;8.670;2023-07-28T04:09:14;17.10;96.30
46816;DHT22;32787;53.316;8.670;2023-07-28T04:11:39;17.10;96.40
46816;DHT22;32787;53.316;8.670;2023-07-28T04:14:05;17.10;96.40
46816;DHT22;32787;53.316;8.670;2023-07-28T04:16:31;17.10;96.50
46816;DHT22;32787;53.316;8.670;2023-07-28T04:18:57;17.10;96.70
46816;DHT22;32787;53.316;8.670;2023-07-28T04:21:23;17.10;96.80
46816;DHT22;32787;53.316;8.670;2023-07-28T04:23:48;17.10;96.80
46816;DHT22;32787;53.316;8.670;2023-07-28T04:26:14;17.00;96.90
46816;DHT22;32787;53.316;8.670;2023-07-28T04:28:40;17.10;96.90
46816;DHT22;32787;53.316;8.670;2023-07-28T04:31:05;17.10;96.90
46816;DHT22;32787;53.316;8.670;2023-07-28T04:33:31;17.10;97.00
46816;DHT22;32787;53.316;8.670;2023-07-28T04:35:56;17.10;97.00
46816;DHT22;32787;53.316;8.670;2023-07-28T04:38:22;17.10;97.00
46816;DHT22;32787;53.316;8.670;2023-07-28T04:40:48;17.10;97.00
46816;DHT22;32787;53.316;8.670;2023-07-28T04:43:13;17.10;97.00
46816;DHT22;32787;53.316;8.670;2023-07-28T04:45:39;17.20;97.10
46816;DHT22;32787;53.316;8.670;2023-07-28T04:48:05;17.10;97.10
46816;DHT22;32787;53.316;8.670;2023-07-28T04:50:30;17.10;97.10
46816;DHT22;32787;53.316;8.670;2023-07-28T04:52:57;17.10;97.10
46816;DHT22;32787;53.316;8.670;2023-07-28T04:55:23;17.10;97.10
46816;DHT22;32787;53.316;8.670;2023-07-28T04:57:49;17.10;97.10
46816;DHT22;32787;53.316;8.670;2023-07-28T05:00:14;17.20;97.10
46816;DHT22;32787;53.316;8.670;2023-07-28T05:02:40;17.30;97.20
46816;DHT22;32787;53.316;8.670;2023-07-28T05:05:06;17.20;97.10
46816;DHT22;32787;53.316;8.670;2023-07-28T05:07:32;17.10;97.10
46816;DHT22;32787;53.316;8.670;2023-07-28T05:09:57;17.20;97.20
46816;DHT22;32787;53.316;8.670;2023-07-28T05:12:23;17.20;97.10
46816;DHT22;32787;53.316;8.670;2023-07-28T05:14:48;17.20;97.10
46816;DHT22;32787;53.316;8.670;2023-07-28T05:17:14;17.10;97.20
46816;DHT22;32787;53.316;8.670;2023-07-28T05:19:40;17.20;97.20
46816;DHT22;32787;53.316;8.670;2023-07-28T05:22:06;17.30;97.20
46816;DHT22;32787;53.316;8.670;2023-07-28T05:24:35;17.30;97.30
46816;DHT22;32787;53.316;8.670;2023-07-28T05:27:00;17.30;97.20
46816;DHT22;32787;53.316;8.670;2023-07-28T05:29:26;17.30;97.20
46816;DHT22;32787;53.316;8.670;2023-07-28T05:31:51;17.30;97.20
46816;DHT22;32787;53.316;8.670;2023-07-28T05:34:17;17.30;97.20
46816;DHT22;32787;53.316;8.670;2023-07-28T05:36:43;17.30;97.20
46816;DHT22;32787;53.316;8.670;2023-07-28T05:39:09;17.30;97.20
46816;DHT22;32787;53.316;8.670;2023-07-28T05:41:36;17.40;97.20
46816;DHT22;32787;53.316;8.670;2023-07-28T05:44:01;17.40;97.20
46816;DHT22;32787;53.316;8.670;2023-07-28T05:46:28;17.40;97.20
46816;DHT22;32787;53.316;8.670;2023-07-28T05:48:57;17.50;97.20
46816;DHT22;32787;53.316;8.670;2023-07-28T05:51:23;17.50;97.20
46816;DHT22;32787;53.316;8.670;2023-07-28T05:53:49;17.60;97.20
46816;DHT22;32787;53.316;8.670;2023-07-28T05:56:15;17.50;97.20
46816;DHT22;32787;53.316;8.670;2023-07-28T05:58:41;17.60;97.20
46816;DHT22;32787;53.316;8.670;2023-07-28T06:01:07;17.50;97.20
46816;DHT22;32787;53.316;8.670;2023-07-28T06:03:33;17.50;97.20
46816;DHT22;32787;53.316;8.670;2023-07-28T06:05:58;17.70;97.20
46816;DHT22;32787;53.316;8.670;2023-07-28T06:08:24;17.60;97.20
46816;DHT22;32787;53.316;8.670;2023-07-28T06:10:49;17.70;97.20
46816;DHT22;32787;53.316;8.670;2023-07-28T06:13:15;17.80;97.20
46816;DHT22;32787;53.316;8.670;2023-07-28T06:15:41;17.80;97.20
46816;DHT22;32787;53.316;8.670;2023-07-28T06:18:07;17.80;97.20
46816;DHT22;32787;53.316;8.670;2023-07-28T06:20:33;17.70;97.10
46816;DHT22;32787;53.316;8.670;2023-07-28T06:23:00;17.80;97.20
46816;DHT22;32787;53.316;8.670;2023-07-28T06:25:25;17.80;97.20
46816;DHT22;32787;53.316;8.670;2023-07-28T06:27:51;17.90;97.20
46816;DHT22;32787;53.316;8.670;2023-07-28T06:30:17;18.00;97.20
46816;DHT22;32787;53.316;8.670;2023-07-28T06:32:42;18.10;97.10
46816;DHT22;32787;53.316;8.670;2023-07-28T06:35:08;18.00;97.00
46816;DHT22;32787;53.316;8.670;2023-07-28T06:37:35;17.80;97.00
46816;DHT22;32787;53.316;8.670;2023-07-28T06:40:03;17.80;97.10
46816;DHT22;32787;53.316;8.670;2023-07-28T06:42:30;17.90;97.10
46816;DHT22;32787;53.316;8.670;2023-07-28T06:44:56;18.00;97.10
46816;DHT22;32787;53.316;8.670;2023-07-28T06:47:22;18.00;97.10
46816;DHT22;32787;53.316;8.670;2023-07-28T06:49:48;18.00;97.00
46816;DHT22;32787;53.316;8.670;2023-07-28T06:52:13;18.00;97.00
46816;DHT22;32787;53.316;8.670;2023-07-28T06:54:39;18.00;97.00
46816;DHT22;32787;53.316;8.670;2023-07-28T06:57:05;18.00;96.90
46816;DHT22;32787;53.316;8.670;2023-07-28T06:59:32;17.90;96.90
46816;DHT22;32787;53.316;8.670;2023-07-28T07:01:57;18.00;96.90
46816;DHT22;32787;53.316;8.670;2023-07-28T07:04:23;17.90;96.90
46816;DHT22;32787;53.316;8.670;2023-07-28T07:06:48;17.80;96.90
46816;DHT22;32787;53.316;8.670;2023-07-28T07:09:14;17.80;97.00
46816;DHT22;32787;53.316;8.670;2023-07-28T07:11:40;18.00;97.00
46816;DHT22;32787;53.316;8.670;2023-07-28T07:14:06;17.90;96.80
46816;DHT22;32787;53.316;8.670;2023-07-28T07:16:32;17.90;96.80
46816;DHT22;32787;53.316;8.670;2023-07-28T07:18:58;17.80;96.80
46816;DHT22;32787;53.316;8.670;2023-07-28T07:21:24;17.70;96.90
46816;DHT22;32787;53.316;8.670;2023-07-28T07:23:49;17.70;97.00
46816;DHT22;32787;53.316;8.670;2023-07-28T07:26:15;17.70;96.90
46816;DHT22;32787;53.316;8.670;2023-07-28T07:28:40;17.60;97.00
46816;DHT22;32787;53.316;8.670;2023-07-28T07:31:13;17.70;97.00
46816;DHT22;32787;53.316;8.670;2023-07-28T07:33:39;17.70;97.10
46816;DHT22;32787;53.316;8.670;2023-07-28T07:36:05;17.70;97.10
46816;DHT22;32787;53.316;8.670;2023-07-28T07:38:36;17.70;97.20
46816;DHT22;32787;53.316;8.670;2023-07-28T07:41:02;17.80;97.30
46816;DHT22;32787;53.316;8.670;2023-07-28T07:43:28;17.80;97.20
46816;DHT22;32787;53.316;8.670;2023-07-28T07:45:53;17.80;97.30
46816;DHT22;32787;53.316;8.670;2023-07-28T07:48:20;17.80;97.20
46816;DHT22;32787;53.316;8.670;2023-07-28T07:50:45;17.90;97.30
46816;DHT22;32787;53.316;8.670;2023-07-28T07:53:11;17.90;97.30
46816;DHT22;32787;53.316;8.670;2023-07-28T07:55:36;18.00;97.30
46816;DHT22;32787;53.316;8.670;2023-07-28T07:58:02;18.10;97.40
46816;DHT22;32787;53.316;8.670;2023-07-28T08:00:29;18.20;97.40
46816;DHT22;32787;53.316;8.670;2023-07-28T08:02:54;18.40;97.40
46816;DHT22;32787;53.316;8.670;2023-07-28T08:05:20;18.50;97.40
46816;DHT22;32787;53.316;8.670;2023-07-28T08:07:46;18.50;97.30
46816;DHT22;32787;53.316;8.670;2023-07-28T08:10:13;18.30;97.20
46816;DHT22;32787;53.316;8.670;2023-07-28T08:12:38;18.30;97.20
46816;DHT22;32787;53.316;8.670;2023-07-28T08:15:05;18.10;97.20
46816;DHT22;32787;53.316;8.670;2023-07-28T08:17:30;17.90;97.30
46816;DHT22;32787;53.316;8.670;2023-07-28T08:19:56;17.90;97.40
46816;DHT22;32787;53.316;8.670;2023-07-28T08:22:21;18.00;97.40
46816;DHT22;32787;53.316;8.670;2023-07-28T08:24:47;18.00;97.40
46816;DHT22;32787;53.316;8.670;2023-07-28T08:27:13;18.00;97.40
46816;DHT22;32787;53.316;8.670;2023-07-28T08:29:38;18.20;97.50
46816;DHT22;32787;53.316;8.670;2023-07-28T08:32:04;18.30;97.50
46816;DHT22;32787;53.316;8.670;2023-07-28T08:34:30;18.20;97.40
46816;DHT22;32787;53.316;8.670;2023-07-28T08:36:56;18.10;97.30
46816;DHT22;32787;53.316;8.670;2023-07-28T08:39:21;18.20;97.40
46816;DHT22;32787;53.316;8.670;2023-07-28T08:41:47;18.30;97.40
46816;DHT22;32787;53.316;8.670;2023-07-28T08:44:12;18.30;97.40
46816;DHT22;32787;53.316;8.670;2023-07-28T08:46:39;18.30;97.40
46816;DHT22;32787;53.316;8.670;2023-07-28T08:49:04;18.30;97.40
46816;DHT22;32787;53.316;8.670;2023-07-28T08:51:30;18.30;97.40
46816;DHT22;32787;53.316;8.670;2023-07-28T08:53:56;18.30;97.40
46816;DHT22;32787;53.316;8.670;2023-07-28T08:56:23;18.20;97.40
46816;DHT22;32787;53.316;8.670;2023-07-28T08:58:49;18.20;97.40
46816;DHT22;32787;53.316;8.670;2023-07-28T09:01:15;18.30;97.40
46816;DHT22;32787;53.316;8.670;2023-07-28T09:03:41;18.30;97.50
46816;DHT22;32787;53.316;8.670;2023-07-28T09:06:07;18.50;97.50
46816;DHT22;32787;53.316;8.670;2023-07-28T09:08:36;18.70;97.40
46816;DHT22;32787;53.316;8.670;2023-07-28T09:11:04;18.70;97.30
46816;DHT22;32787;53.316;8.670;2023-07-28T09:13:39;18.80;97.40
46816;DHT22;32787;53.316;8.670;2023-07-28T09:16:17;18.90;97.40
46816;DHT22;32787;53.316;8.670;2023-07-28T09:18:43;19.00;97.50
46816;DHT22;32787;53.316;8.670;2023-07-28T09:21:19;19.00;97.40
46816;DHT22;32787;53.316;8.670;2023-07-28T09:23:47;18.80;97.30
46816;DHT22;32787;53.316;8.670;2023-07-28T09:26:14;18.70;97.30
46816;DHT22;32787;53.316;8.670;2023-07-28T09:28:41;18.80;97.20
46816;DHT22;32787;53.316;8.670;2023-07-28T09:31:07;18.80;97.20
46816;DHT22;32787;53.316;8.670;2023-07-28T09:33:34;18.60;97.20
46816;DHT22;32787;53.316;8.670;2023-07-28T09:36:11;18.50;97.20
46816;DHT22;32787;53.316;8.670;2023-07-28T09:38:39;18.40;97.30
46816;DHT22;32787;53.316;8.670;2023-07-28T09:41:06;18.50;97.40
46816;DHT22;32787;53.316;8.670;2023-07-28T09:43:35;18.50;97.40
46816;DHT22;32787;53.316;8.670;2023-07-28T09:46:04;18.40;97.50
46816;DHT22;32787;53.316;8.670;2023-07-28T09:48:32;18.30;97.50
46816;DHT22;32787;53.316;8.670;2023-07-28T09:51:14;18.40;97.50
46816;DHT22;32787;53.316;8.670;2023-07-28T09:53:48;18.30;97.50
46816;DHT22;32787;53.316;8.670;2023-07-28T09:56:19;18.30;97.60
46816;DHT22;32787;53.316;8.670;2023-07-28T09:58:50;18.40;97.60
46816;DHT22;32787;53.316;8.670;2023-07-28T10:01:17;18.30;97.60
46816;DHT22;32787;53.316;8.670;2023-07-28T10:03:42;18.30;97.60
46816;DHT22;32787;53.316;8.670;2023-07-28T10:06:08;18.30;97.60
46816;DHT22;32787;53.316;8.670;2023-07-28T10:08:35;18.20;97.60
46816;DHT22;32787;53.316;8.670;2023-07-28T10:11:02;18.40;97.70
46816;DHT22;32787;53.316;8.670;2023-07-28T10:13:39;18.50;97.70
46816;DHT22;32787;53.316;8.670;2023-07-28T10:16:06;18.60;97.70
46816;DHT22;32787;53.316;8.670;2023-07-28T10:18:33;18.70;97.70
46816;DHT22;32787;53.316;8.670;2023-07-28T10:21:05;18.90;97.80
46816;DHT22;32787;53.316;8.670;2023-07-28T10:23:34;19.10;97.80
46816;DHT22;32787;53.316;8.670;2023-07-28T10:26:04;19.20;97.70
46816;DHT22;32787;53.316;8.670;2023-07-28T10:28:38;19.30;97.70
46816;DHT22;32787;53.316;8.670;2023-07-28T10:31:07;19.20;97.60
46816;DHT22;32787;53.316;8.670;2023-07-28T10:33:36;19.20;97.70
46816;DHT22;32787;53.316;8.670;2023-07-28T10:38:36;19.30;97.70
46816;DHT22;32787;53.316;8.670;2023-07-28T10:41:14;19.60;97.80
46816;DHT22;32787;53.316;8.670;2023-07-28T10:43:41;19.70;97.80
46816;DHT22;32787;53.316;8.670;2023-07-28T10:46:11;19.70;97.70
46816;DHT22;32787;53.316;8.670;2023-07-28T10:48:42;19.60;97.60
46816;DHT22;32787;53.316;8.670;2023-07-28T10:51:08;19.30;97.50
46816;DHT22;32787;53.316;8.670;2023-07-28T10:53:34;19.40;97.50
46816;DHT22;32787;53.316;8.670;2023-07-28T10:56:02;19.30;97.50
46816;DHT22;32787;53.316;8.670;2023-07-28T10:58:27;19.10;97.40
46816;DHT22;32787;53.316;8.670;2023-07-28T11:00:53;19.00;97.20
46816;DHT22;32787;53.316;8.670;2023-07-28T11:03:19;19.00;97.20
46816;DHT22;32787;53.316;8.670;2023-07-28T11:05:45;19.00;97.20
46816;DHT22;32787;53.316;8.670;2023-07-28T11:08:13;18.80;97.20
46816;DHT22;32787;53.316;8.670;2023-07-28T11:10:39;18.80;97.30
46816;DHT22;32787;53.316;8.670;2023-07-28T11:13:06;18.80;97.30
46816;DHT22;32787;53.316;8.670;2023-07-28T11:15:32;18.90;97.30
46816;DHT22;32787;53.316;8.670;2023-07-28T11:17:58;18.90;97.40
46816;DHT22;32787;53.316;8.670;2023-07-28T11:20:26;19.10;97.40
46816;DHT22;32787;53.316;8.670;2023-07-28T11:22:55;19.10;97.30
46816;DHT22;32787;53.316;8.670;2023-07-28T11:25:26;19.30;97.30
46816;DHT22;32787;53.316;8.670;2023-07-28T11:27:52;19.30;97.30
46816;DHT22;32787;53.316;8.670;2023-07-28T11:30:19;19.50;97.30
46816;DHT22;32787;53.316;8.670;2023-07-28T11:32:50;19.40;97.10
46816;DHT22;32787;53.316;8.670;2023-07-28T11:35:18;19.50;97.20
46816;DHT22;32787;53.316;8.670;2023-07-28T11:37:46;19.70;97.20
46816;DHT22;32787;53.316;8.670;2023-07-28T11:40:15;19.70;97.20
46816;DHT22;32787;53.316;8.670;2023-07-28T11:42:45;19.90;97.20
46816;DHT22;32787;53.316;8.670;2023-07-28T11:45:13;20.00;97.20
46816;DHT22;32787;53.316;8.670;2023-07-28T11:47:39;20.00;96.90
46816;DHT22;32787;53.316;8.670;2023-07-28T11:50:05;20.00;96.80
46816;DHT22;32787;53.316;8.670;2023-07-28T11:52:31;19.80;96.50
46816;DHT22;32787;53.316;8.670;2023-07-28T11:54:59;20.00;96.70
46816;DHT22;32787;53.316;8.670;2023-07-28T11:57:26;20.10;96.50
46816;DHT22;32787;53.316;8.670;2023-07-28T11:59:52;20.20;96.60
46816;DHT22;32787;53.316;8.670;2023-07-28T12:02:25;20.10;96.50
46816;DHT22;32787;53.316;8.670;2023-07-28T12:04:51;20.10;96.50
46816;DHT22;32787;53.316;8.670;2023-07-28T12:07:27;20.00;96.50
46816;DHT22;32787;53.316;8.670;2023-07-28T12:09:53;19.80;96.30
46816;DHT22;32787;53.316;8.670;2023-07-28T12:12:28;19.70;96.40
46816;DHT22;32787;53.316;8.670;2023-07-28T12:14:59;19.60;96.30
46816;DHT22;32787;53.316;8.670;2023-07-28T12:17:30;19.50;96.40
46816;DHT22;32787;53.316;8.670;2023-07-28T12:20:07;19.40;96.30
46816;DHT22;32787;53.316;8.670;2023-07-28T12:22:33;19.40;96.40
46816;DHT22;32787;53.316;8.670;2023-07-28T12:24:59;19.50;96.40
46816;DHT22;32787;53.316;8.670;2023-07-28T12:27:25;19.30;96.30
46816;DHT22;32787;53.316;8.670;2023-07-28T12:29:52;19.30;96.40
46816;DHT22;32787;53.316;8.670;2023-07-28T12:32:18;19.60;96.60
46816;DHT22;32787;53.316;8.670;2023-07-28T12:34:44;19.60;96.40
46816;DHT22;32787;53.316;8.670;2023-07-28T12:37:10;19.60;96.30
46816;DHT22;32787;53.316;8.670;2023-07-28T12:39:37;19.80;96.10
46816;DHT22;32787;53.316;8.670;2023-07-28T12:42:07;20.10;96.20
46816;DHT22;32787;53.316;8.670;2023-07-28T12:44:33;21.10;96.40
46816;DHT22;32787;53.316;8.670;2023-07-28T12:46:59;21.90;95.00
46816;DHT22;32787;53.316;8.670;2023-07-28T12:49:24;23.00;93.80
46816;DHT22;32787;53.316;8.670;2023-07-28T12:51:50;24.30;90.70
46816;DHT22;32787;53.316;8.670;2023-07-28T12:54:15;25.00;87.70
46816;DHT22;32787;53.316;8.670;2023-07-28T12:56:42;26.00;81.50
46816;DHT22;32787;53.316;8.670;2023-07-28T12:59:07;25.50;78.00
46816;DHT22;32787;53.316;8.670;2023-07-28T13:01:34;24.40;84.90
46816;DHT22;32787;53.316;8.670;2023-07-28T13:04:00;23.30;84.10
46816;DHT22;32787;53.316;8.670;2023-07-28T13:06:26;22.70;85.20
46816;DHT22;32787;53.316;8.670;2023-07-28T13:08:52;22.00;86.50
46816;DHT22;32787;53.316;8.670;2023-07-28T13:11:17;22.50;86.90
46816;DHT22;32787;53.316;8.670;2023-07-28T13:13:43;22.50;84.90
46816;DHT22;32787;53.316;8.670;2023-07-28T13:16:08;22.10;85.80
46816;DHT22;32787;53.316;8.670;2023-07-28T13:18:34;22.70;87.10
46816;DHT22;32787;53.316;8.670;2023-07-28T13:20:59;24.50;82.80
46816;DHT22;32787;53.316;8.670;2023-07-28T13:23:25;26.20;79.80
46816;DHT22;32787;53.316;8.670;2023-07-28T13:25:51;27.00;71.40
46816;DHT22;32787;53.316;8.670;2023-07-28T13:28:18;27.10;67.70
46816;DHT22;32787;53.316;8.670;2023-07-28T13:30:43;27.40;70.70
46816;DHT22;32787;53.316;8.670;2023-07-28T13:33:09;28.00;67.60
46816;DHT22;32787;53.316;8.670;2023-07-28T13:35:35;27.10;69.10
46816;DHT22;32787;53.316;8.670;2023-07-28T13:38:00;27.30;73.70
46816;DHT22;32787;53.316;8.670;2023-07-28T13:40:26;28.00;68.00
46816;DHT22;32787;53.316;8.670;2023-07-28T13:42:51;28.40;62.80
46816;DHT22;32787;53.316;8.670;2023-07-28T13:45:17;28.50;64.60
46816;DHT22;32787;53.316;8.670;2023-07-28T13:47:43;28.10;62.10
46816;DHT22;32787;53.316;8.670;2023-07-28T13:50:08;27.50;66.20
46816;DHT22;32787;53.316;8.670;2023-07-28T13:52:34;28.50;62.40
46816;DHT22;32787;53.316;8.670;2023-07-28T13:55:00;29.00;61.40
46816;DHT22;32787;53.316;8.670;2023-07-28T13:57:26;28.80;60.90
46816;DHT22;32787;53.316;8.670;2023-07-28T13:59:51;29.00;64.20
46816;DHT22;32787;53.316;8.670;2023-07-28T14:02:17;29.00;61.70
46816;DHT22;32787;53.316;8.670;2023-07-28T14:04:46;29.60;57.80
46816;DHT22;32787;53.316;8.670;2023-07-28T14:07:11;29.90;56.80
46816;DHT22;32787;53.316;8.670;2023-07-28T14:09:37;29.90;62.70
46816;DHT22;32787;53.316;8.670;2023-07-28T14:12:03;30.60;55.80
46816;DHT22;32787;53.316;8.670;2023-07-28T14:14:29;30.40;54.70
46816;DHT22;32787;53.316;8.670;2023-07-28T14:16:55;30.80;56.80
46816;DHT22;32787;53.316;8.670;2023-07-28T14:19:20;29.80;57.60
46816;DHT22;32787;53.316;8.670;2023-07-28T14:21:46;29.90;57.50
46816;DHT22;32787;53.316;8.670;2023-07-28T14:24:12;28.90;58.40
46816;DHT22;32787;53.316;8.670;2023-07-28T14:26:38;27.60;61.50
46816;DHT22;32787;53.316;8.670;2023-07-28T14:29:04;27.60;63.60
46816;DHT22;32787;53.316;8.670;2023-07-28T14:31:29;27.90;61.50
46816;DHT22;32787;53.316;8.670;2023-07-28T14:33:55;27.50;64.70
46816;DHT22;32787;53.316;8.670;2023-07-28T14:36:21;28.20;62.90
46816;DHT22;32787;53.316;8.670;2023-07-28T14:38:46;29.00;62.50
46816;DHT22;32787;53.316;8.670;2023-07-28T14:41:12;29.70;60.50
46816;DHT22;32787;53.316;8.670;2023-07-28T14:43:38;30.10;55.50
46816;DHT22;32787;53.316;8.670;2023-07-28T14:46:04;30.40;56.70
46816;DHT22;32787;53.316;8.670;2023-07-28T14:48:29;29.30;56.90
46816;DHT22;32787;53.316;8.670;2023-07-28T14:50:55;29.00;58.70
46816;DHT22;32787;53.316;8.670;2023-07-28T14:53:35;29.80;57.30
46816;DHT22;32787;53.316;8.670;2023-07-28T14:56:03;29.90;56.60
46816;DHT22;32787;53.316;8.670;2023-07-28T14:58:29;29.40;57.20
46816;DHT22;32787;53.316;8.670;2023-07-28T15:00:55;28.40;60.30
46816;DHT22;32787;53.316;8.670;2023-07-28T15:03:22;29.00;58.20
46816;DHT22;32787;53.316;8.670;2023-07-28T15:05:48;29.30;56.50
46816;DHT22;32787;53.316;8.670;2023-07-28T15:08:14;29.70;55.70
46816;DHT22;32787;53.316;8.670;2023-07-28T15:10:40;29.90;56.00
46816;DHT22;32787;53.316;8.670;2023-07-28T15:13:06;29.50;54.60
46816;DHT22;32787;53.316;8.670;2023-07-28T15:15:32;29.10;58.00
46816;DHT22;32787;53.316;8.670;2023-07-28T15:17:57;30.20;56.60
46816;DHT22;32787;53.316;8.670;2023-07-28T15:20:23;30.70;53.30
46816;DHT22;32787;53.316;8.670;2023-07-28T15:22:49;31.40;51.90
46816;DHT22;32787;53.316;8.670;2023-07-28T15:25:15;31.10;51.80
46816;DHT22;32787;53.316;8.670;2023-07-28T15:27:41;31.70;53.20
46816;DHT22;32787;53.316;8.670;2023-07-28T15:30:10;31.50;52.30
46816;DHT22;32787;53.316;8.670;2023-07-28T15:32:37;31.00;50.80
46816;DHT22;32787;53.316;8.670;2023-07-28T15:35:03;30.60;53.50